createdAt,value
2022-12-29T00:02:27.030Z,98757.59
2022-12-29T00:04:54.747Z,98974.06
2022-12-29T00:07:22.382Z,98984.78
2022-12-29T00:09:50.032Z,98971.81
2022-12-29T00:12:17.690Z,98974.56
2022-12-29T00:15:03.041Z,98970.94
2022-12-29T00:17:30.723Z,98964.72
2022-12-29T00:20:16.055Z,98965.66
2022-12-29T00:23:03.415Z,98912.50
2022-12-29T00:25:48.698Z,98957.38
2022-12-29T00:28:34.013Z,98961.94
2022-12-29T00:31:20.928Z,98961.63
2022-12-29T00:34:06.305Z,98966.38
2022-12-29T00:36:43.402Z,98955.31
2022-12-29T00:39:33.968Z,98945.44
2022-12-29T00:42:29.175Z,98949.16
2022-12-29T00:44:56.864Z,98949.84
2022-12-29T00:47:24.554Z,98952.84
2022-12-29T00:49:51.351Z,98939.03
2022-12-29T00:52:19.021Z,98951.81
2022-12-29T00:54:46.829Z,98948.25
2022-12-29T00:57:14.554Z,98937.09
2022-12-29T00:59:43.502Z,98946.97
2022-12-29T01:02:12.256Z,98914.13
2022-12-29T01:04:40.094Z,98942.22
2022-12-29T01:07:07.935Z,98942.22
2022-12-29T01:09:53.297Z,98950.06
2022-12-29T01:12:41.518Z,98944.63
2022-12-29T01:15:14.233Z,98951.91
2022-12-29T01:17:42.933Z,98948.22
2022-12-29T01:20:11.675Z,98924.44
2022-12-29T01:22:39.854Z,98940.84
2022-12-29T01:25:08.108Z,98943.56
2022-12-29T01:27:36.193Z,98950.19
2022-12-29T01:30:03.918Z,98953.84
2022-12-29T01:32:33.185Z,98949.72
2022-12-29T01:35:00.850Z,98948.91
2022-12-29T01:37:28.614Z,98948.03
2022-12-29T01:39:56.631Z,98940.44
2022-12-29T01:42:27.337Z,98938.94
2022-12-29T01:45:04.652Z,98923.03
2022-12-29T01:47:35.864Z,98937.59
2022-12-29T01:50:10.951Z,98916.75
2022-12-29T01:52:43.248Z,98940.75
2022-12-29T01:55:13.117Z,98938.09
2022-12-29T01:57:46.105Z,98939.50
2022-12-29T02:00:16.214Z,98936.84
2022-12-29T02:02:52.953Z,98935.38
2022-12-29T02:05:52.012Z,98921.31
2022-12-29T02:08:20.497Z,98916.56
2022-12-29T02:10:49.435Z,98910.94
2022-12-29T02:13:19.117Z,98916.00
2022-12-29T02:15:56.731Z,98918.28
2022-12-29T02:18:31.307Z,98906.19
2022-12-29T02:21:04.983Z,98914.56
2022-12-29T02:24:06.548Z,98888.75
2022-12-29T02:26:55.764Z,98917.28
2022-12-29T02:29:44.820Z,98903.31
2022-12-29T02:32:33.128Z,98910.91
2022-12-29T02:35:04.079Z,98904.53
2022-12-29T02:37:47.491Z,98855.88
2022-12-29T02:40:30.297Z,98891.69
2022-12-29T02:43:04.646Z,98900.19
2022-12-29T02:45:44.014Z,98890.09
2022-12-29T02:48:18.341Z,98898.84
2022-12-29T02:50:55.113Z,98892.97
2022-12-29T02:53:40.005Z,98896.75
2022-12-29T02:56:07.879Z,98897.09
2022-12-29T02:58:35.541Z,98886.84
2022-12-29T03:01:29.421Z,98888.78
2022-12-29T03:04:05.895Z,98878.78
2022-12-29T03:06:53.341Z,98894.28
2022-12-29T03:09:45.540Z,98893.41
2022-12-29T03:12:47.379Z,98893.09
2022-12-29T03:15:40.891Z,98895.69
2022-12-29T03:18:47.433Z,98883.38
2022-12-29T03:21:46.495Z,98886.56
2022-12-29T03:24:18.003Z,98861.06
2022-12-29T03:26:51.008Z,98874.84
2022-12-29T03:29:22.672Z,98836.88
2022-12-29T03:31:53.744Z,98848.16
2022-12-29T03:34:23.940Z,98836.88
2022-12-29T03:36:59.710Z,98843.47
2022-12-29T03:39:28.529Z,98856.94
2022-12-29T03:42:08.552Z,98855.75
2022-12-29T03:44:41.951Z,98864.31
2022-12-29T03:47:13.320Z,98841.06
2022-12-29T03:49:41.582Z,98864.09
2022-12-29T03:52:09.780Z,98874.25
2022-12-29T03:54:43.501Z,98862.56
2022-12-29T03:57:13.027Z,98866.13
2022-12-29T03:59:51.892Z,98837.34
2022-12-29T04:02:19.702Z,98842.72
2022-12-29T04:04:48.285Z,98836.72
2022-12-29T04:07:16.270Z,98842.97
2022-12-29T04:09:44.256Z,98842.22
2022-12-29T04:12:17.379Z,98853.53
2022-12-29T04:14:46.012Z,98855.69
2022-12-29T04:17:13.728Z,98860.53
2022-12-29T04:19:43.417Z,98855.56
2022-12-29T04:22:12.645Z,98855.56
2022-12-29T04:24:41.272Z,98865.00
2022-12-29T04:27:11.282Z,98869.94
2022-12-29T04:30:14.008Z,98869.97
2022-12-29T04:33:01.631Z,98843.41
2022-12-29T04:35:30.368Z,98862.59
2022-12-29T04:37:58.726Z,98837.25
2022-12-29T04:40:27.054Z,98844.38
2022-12-29T04:42:55.363Z,98863.09
2022-12-29T04:45:24.409Z,98836.34
2022-12-29T04:47:57.375Z,98875.66
2022-12-29T04:50:43.895Z,98875.66
2022-12-29T04:53:24.529Z,98864.88
2022-12-29T04:55:54.701Z,98854.31
2022-12-29T04:58:23.669Z,98865.06
2022-12-29T05:00:53.810Z,98867.56
2022-12-29T05:03:24.688Z,98861.66
2022-12-29T05:05:56.189Z,98876.13
2022-12-29T05:08:27.961Z,98833.50
2022-12-29T05:10:58.426Z,98869.81
2022-12-29T05:13:26.190Z,98869.25
2022-12-29T05:15:55.490Z,98870.06
2022-12-29T05:18:24.946Z,98867.28
2022-12-29T05:20:52.719Z,98882.78
2022-12-29T05:23:22.163Z,98863.00
2022-12-29T05:26:00.332Z,98895.38
2022-12-29T05:28:32.850Z,98896.19
2022-12-29T05:31:14.367Z,98896.28
2022-12-29T05:33:42.168Z,98902.75
2022-12-29T05:36:10.910Z,98905.88
2022-12-29T05:38:43.233Z,98909.78
2022-12-29T05:41:12.143Z,98903.91
2022-12-29T05:43:58.148Z,98898.38
2022-12-29T05:46:44.173Z,98911.34
2022-12-29T05:49:18.070Z,98894.28
2022-12-29T05:52:09.146Z,98900.56
2022-12-29T05:54:37.051Z,98899.81
2022-12-29T05:57:10.942Z,98909.72
2022-12-29T05:59:40.280Z,98905.59
2022-12-29T06:02:08.147Z,98906.03
2022-12-29T06:04:36.227Z,98907.00
2022-12-29T06:07:04.268Z,98917.41
2022-12-29T06:09:52.146Z,98912.41
2022-12-29T06:12:20.485Z,98912.22
2022-12-29T06:14:51.209Z,98904.69
2022-12-29T06:17:18.908Z,98894.03
2022-12-29T06:19:46.830Z,98901.84
2022-12-29T06:22:14.755Z,98882.31
2022-12-29T06:24:44.001Z,98898.78
2022-12-29T06:27:12.271Z,98908.50
2022-12-29T06:29:41.663Z,98896.13
2022-12-29T06:32:09.822Z,98917.03
2022-12-29T06:34:41.000Z,98916.75
2022-12-29T06:37:08.799Z,98925.28
2022-12-29T06:39:36.510Z,98931.75
2022-12-29T06:42:11.716Z,98920.94
2022-12-29T06:45:14.561Z,98921.00
2022-12-29T06:47:42.220Z,98928.47
2022-12-29T06:50:10.402Z,98915.31
2022-12-29T06:52:38.163Z,98906.06
2022-12-29T06:55:06.350Z,98911.88
2022-12-29T06:57:34.102Z,98917.59
2022-12-29T07:00:01.755Z,98914.91
2022-12-29T07:02:29.525Z,98902.06
2022-12-29T07:04:57.314Z,98912.69
2022-12-29T07:07:24.989Z,98900.34
2022-12-29T07:09:52.670Z,98913.72
2022-12-29T07:12:20.286Z,98907.25
2022-12-29T07:14:48.571Z,98908.03
2022-12-29T07:17:16.209Z,98906.06
2022-12-29T07:19:45.292Z,98907.13
2022-12-29T07:22:12.982Z,98907.44
2022-12-29T07:24:41.084Z,98895.47
2022-12-29T07:27:08.854Z,98912.03
2022-12-29T07:29:39.247Z,98915.34
2022-12-29T07:32:07.168Z,98861.34
2022-12-29T07:34:34.933Z,98912.28
2022-12-29T07:37:02.597Z,98935.59
2022-12-29T07:39:30.209Z,98937.59
2022-12-29T07:42:02.815Z,98924.09
2022-12-29T07:44:39.265Z,98934.91
2022-12-29T07:47:25.527Z,98942.56
2022-12-29T07:49:53.158Z,98946.91
2022-12-29T07:52:20.947Z,98940.34
2022-12-29T07:54:48.617Z,98939.16
2022-12-29T07:57:16.299Z,98931.63
2022-12-29T07:59:44.362Z,98924.72
2022-12-29T08:02:13.450Z,98933.75
2022-12-29T08:04:41.236Z,98947.56
2022-12-29T08:07:08.951Z,98926.16
2022-12-29T08:09:36.555Z,98947.66
2022-12-29T08:12:04.324Z,98916.03
2022-12-29T08:14:31.965Z,98945.69
2022-12-29T08:16:59.657Z,98946.50
2022-12-29T08:19:27.306Z,98918.09
2022-12-29T08:21:55.527Z,98931.47
2022-12-29T08:24:23.467Z,98935.78
2022-12-29T08:26:51.819Z,98933.09
2022-12-29T08:29:19.483Z,98934.16
2022-12-29T08:31:47.261Z,98939.00
2022-12-29T08:34:15.302Z,98949.53
2022-12-29T08:36:43.013Z,98952.81
2022-12-29T08:39:11.256Z,98945.75
2022-12-29T08:41:38.986Z,98946.84
2022-12-29T08:44:07.248Z,98942.56
2022-12-29T08:46:34.924Z,98941.00
2022-12-29T08:49:02.561Z,98949.03
2022-12-29T08:51:30.189Z,98943.31
2022-12-29T08:53:57.879Z,98947.84
2022-12-29T08:56:25.892Z,98948.41
2022-12-29T08:58:57.152Z,98937.81
2022-12-29T09:01:25.955Z,98948.03
2022-12-29T09:04:14.386Z,98949.00
2022-12-29T09:06:42.640Z,98954.00
2022-12-29T09:09:10.428Z,98947.13
2022-12-29T09:11:38.256Z,98957.88
2022-12-29T09:14:06.123Z,98949.06
2022-12-29T09:16:34.806Z,98927.09
2022-12-29T09:19:03.365Z,98956.75
2022-12-29T09:21:31.333Z,98954.00
2022-12-29T09:23:59.015Z,98944.94
2022-12-29T09:26:26.882Z,98954.56
2022-12-29T09:28:54.501Z,98955.97
2022-12-29T09:31:23.223Z,98954.53
2022-12-29T09:33:51.016Z,98951.50
2022-12-29T09:36:18.684Z,98954.53
2022-12-29T09:38:46.347Z,98958.63
2022-12-29T09:41:27.285Z,98958.97
2022-12-29T09:44:09.046Z,98948.25
2022-12-29T09:46:42.098Z,98952.31
2022-12-29T09:49:22.026Z,98953.09
2022-12-29T09:51:55.038Z,98939.94
2022-12-29T09:54:48.232Z,98934.19
2022-12-29T09:57:26.340Z,98930.66
2022-12-29T10:00:01.174Z,98922.63
2022-12-29T10:02:45.749Z,98923.22
2022-12-29T10:05:37.388Z,98930.66
2022-12-29T10:08:18.418Z,98909.50
2022-12-29T10:10:58.518Z,98927.09
2022-12-29T10:14:03.386Z,98932.03
2022-12-29T10:16:48.734Z,98917.19
2022-12-29T10:19:35.286Z,98926.81
2022-12-29T10:22:19.128Z,98923.78
2022-12-29T10:24:49.423Z,98920.75
2022-12-29T10:27:18.368Z,98925.44
2022-12-29T10:29:52.828Z,98914.44
2022-12-29T10:32:31.487Z,98913.06
2022-12-29T10:35:20.930Z,98910.59
2022-12-29T10:38:05.923Z,98898.44
2022-12-29T10:40:51.898Z,98903.69
2022-12-29T10:43:22.316Z,98914.66
2022-12-29T10:45:50.320Z,98908.88
2022-12-29T10:48:31.990Z,98908.63
2022-12-29T10:51:02.783Z,98921.53
2022-12-29T10:53:48.247Z,98917.97
2022-12-29T10:56:36.049Z,98868.63
2022-12-29T10:59:27.565Z,98900.38
2022-12-29T11:02:15.352Z,98924.00
2022-12-29T11:04:45.658Z,98919.66
2022-12-29T11:07:16.269Z,98925.44
2022-12-29T11:09:46.031Z,98921.03
2022-12-29T11:12:32.029Z,98910.59
2022-12-29T11:15:21.718Z,98904.28
2022-12-29T11:17:55.924Z,98900.44
2022-12-29T11:20:29.474Z,98896.06
2022-12-29T11:22:57.549Z,98877.63
2022-12-29T11:25:25.203Z,98870.59
2022-12-29T11:28:16.125Z,98873.13
2022-12-29T11:30:44.523Z,98876.72
2022-12-29T11:33:12.265Z,98868.75
2022-12-29T11:35:44.395Z,98867.13
2022-12-29T11:38:25.498Z,98856.66
2022-12-29T11:40:53.368Z,98849.91
2022-12-29T11:43:34.411Z,98848.53
2022-12-29T11:46:04.690Z,98825.16
2022-12-29T11:48:42.643Z,98855.41
2022-12-29T11:51:12.786Z,98851.03
2022-12-29T11:53:53.503Z,98851.59
2022-12-29T11:56:40.526Z,98832.34
2022-12-29T11:59:30.902Z,98845.28
2022-12-29T12:02:00.935Z,98839.81
2022-12-29T12:04:33.261Z,98840.34
2022-12-29T12:07:10.001Z,98841.16
2022-12-29T12:09:45.744Z,98845.53
2022-12-29T12:12:37.462Z,98847.47
2022-12-29T12:15:15.514Z,98845.84
2022-12-29T12:18:05.903Z,98839.41
2022-12-29T12:20:47.587Z,98838.72
2022-12-29T12:23:33.851Z,98822.44
2022-12-29T12:26:05.697Z,98813.41
2022-12-29T12:28:42.802Z,98809.47
2022-12-29T12:31:51.718Z,98815.50
2022-12-29T12:34:31.118Z,98815.69
2022-12-29T12:37:21.092Z,98807.88
2022-12-29T12:40:05.557Z,98789.78
2022-12-29T12:42:45.105Z,98808.59
2022-12-29T12:45:22.107Z,98810.38
2022-12-29T12:48:05.133Z,98819.75
2022-12-29T12:50:48.093Z,98817.94
2022-12-29T12:53:22.063Z,98808.25
2022-12-29T12:55:58.859Z,98805.34
2022-12-29T12:58:41.885Z,98800.06
2022-12-29T13:01:31.435Z,98796.22
2022-12-29T13:04:24.825Z,98774.88
2022-12-29T13:07:28.704Z,98784.13
2022-12-29T13:10:28.765Z,98778.94
2022-12-29T13:12:56.344Z,98770.63
2022-12-29T13:15:41.249Z,98757.63
2022-12-29T13:18:11.853Z,98765.16
2022-12-29T13:21:07.345Z,98759.91
2022-12-29T13:23:43.433Z,98765.50
2022-12-29T13:26:11.060Z,98767.19
2022-12-29T13:28:54.859Z,98760.00
2022-12-29T13:31:48.283Z,98738.66
2022-12-29T13:34:57.554Z,98740.38
2022-12-29T13:37:29.917Z,98749.31
2022-12-29T13:40:04.420Z,98776.00
2022-12-29T13:42:32.611Z,98786.50
2022-12-29T13:45:08.470Z,98784.25
2022-12-29T13:47:44.372Z,98788.38
2022-12-29T13:50:20.360Z,98786.13
2022-12-29T13:53:04.195Z,98772.63
2022-12-29T13:55:46.822Z,98790.97
2022-12-29T13:58:34.103Z,98785.44
2022-12-29T14:01:39.441Z,98784.44
2022-12-29T14:04:24.732Z,98786.00
2022-12-29T14:07:04.310Z,98799.50
2022-12-29T14:09:42.303Z,98802.88
2022-12-29T14:12:38.547Z,98797.25
2022-12-29T14:15:12.434Z,98796.78
2022-12-29T14:17:46.568Z,98795.38
2022-12-29T14:20:24.559Z,98797.63
2022-12-29T14:23:12.431Z,98789.06
2022-12-29T14:26:07.523Z,98787.44
2022-12-29T14:28:38.810Z,98777.56
2022-12-29T14:31:18.743Z,98789.91
2022-12-29T14:34:08.142Z,98791.03
2022-12-29T14:36:41.481Z,98791.78
2022-12-29T14:39:42.282Z,98782.38
2022-12-29T14:42:13.183Z,98784.97
2022-12-29T14:44:58.846Z,98794.41
2022-12-29T14:47:32.382Z,98795.91
2022-12-29T14:50:16.238Z,98792.84
2022-12-29T14:53:06.178Z,98799.06
2022-12-29T14:55:47.477Z,98806.81
2022-12-29T14:58:20.421Z,98814.81
2022-12-29T15:00:48.914Z,98801.81
2022-12-29T15:03:22.769Z,98799.94
2022-12-29T15:05:56.845Z,98804.00
2022-12-29T15:08:35.355Z,98804.13
2022-12-29T15:11:11.715Z,98798.75
2022-12-29T15:13:44.371Z,98814.13
2022-12-29T15:16:36.857Z,98807.47
2022-12-29T15:19:06.153Z,98813.63
2022-12-29T15:21:38.293Z,98818.91
2022-12-29T15:24:06.489Z,98816.94
2022-12-29T15:26:46.180Z,98813.38
2022-12-29T15:29:49.951Z,98818.97
2022-12-29T15:32:17.624Z,98819.50
2022-12-29T15:34:46.952Z,98821.16
2022-12-29T15:37:37.573Z,98820.63
2022-12-29T15:40:06.050Z,98818.22
2022-12-29T15:43:02.826Z,98823.38
2022-12-29T15:45:35.715Z,98801.59
2022-12-29T15:48:04.374Z,98806.34
2022-12-29T15:50:35.058Z,98821.09
2022-12-29T15:53:04.383Z,98804.06
2022-12-29T15:55:37.843Z,98795.03
2022-12-29T15:58:07.823Z,98823.63
2022-12-29T16:00:38.657Z,98820.00
2022-12-29T16:03:13.159Z,98817.28
2022-12-29T16:05:41.961Z,98820.81
2022-12-29T16:08:26.585Z,98819.16
2022-12-29T16:10:57.243Z,98816.16
2022-12-29T16:13:43.063Z,98809.06
2022-12-29T16:16:19.893Z,98815.16
2022-12-29T16:18:53.450Z,98808.09
2022-12-29T16:21:33.664Z,98803.63
2022-12-29T16:24:08.906Z,98808.59
2022-12-29T16:26:36.835Z,98811.66
2022-12-29T16:29:08.925Z,98815.22
2022-12-29T16:31:38.851Z,98817.41
2022-12-29T16:34:34.037Z,98822.34
2022-12-29T16:37:04.648Z,98824.06
2022-12-29T16:39:40.471Z,98821.56
2022-12-29T16:42:50.952Z,98818.81
2022-12-29T16:45:22.674Z,98817.50
2022-12-29T16:48:13.114Z,98804.72
2022-12-29T16:50:45.266Z,98792.75
2022-12-29T16:53:40.704Z,98811.75
2022-12-29T16:56:18.601Z,98816.06
2022-12-29T16:58:51.991Z,98808.94
2022-12-29T17:01:20.730Z,98810.34
2022-12-29T17:03:54.639Z,98817.84
2022-12-29T17:06:24.136Z,98823.97
2022-12-29T17:08:53.216Z,98816.78
2022-12-29T17:11:42.569Z,98809.66
2022-12-29T17:14:37.990Z,98820.34
2022-12-29T17:17:11.859Z,98823.09
2022-12-29T17:19:40.352Z,98829.03
2022-12-29T17:22:15.493Z,98826.84
2022-12-29T17:24:43.153Z,98835.06
2022-12-29T17:27:22.420Z,98836.09
2022-12-29T17:29:50.972Z,98829.63
2022-12-29T17:32:18.952Z,98830.06
2022-12-29T17:34:46.616Z,98829.94
2022-12-29T17:37:23.272Z,98835.69
2022-12-29T17:39:51.004Z,98829.41
2022-12-29T17:42:20.634Z,98829.84
2022-12-29T17:44:48.549Z,98818.84
2022-12-29T17:47:16.900Z,98810.84
2022-12-29T17:49:46.088Z,98827.63
2022-12-29T17:52:16.095Z,98829.50
2022-12-29T17:54:47.933Z,98833.16
2022-12-29T17:57:16.974Z,98838.38
2022-12-29T17:59:44.648Z,98832.03
2022-12-29T18:02:33.130Z,98833.97
2022-12-29T18:05:01.298Z,98828.44
2022-12-29T18:07:35.645Z,98827.38
2022-12-29T18:10:04.813Z,98829.88
2022-12-29T18:12:46.864Z,98823.84
2022-12-29T18:15:25.234Z,98825.00
2022-12-29T18:18:00.123Z,98822.78
2022-12-29T18:20:30.056Z,98824.25
2022-12-29T18:22:58.851Z,98807.25
2022-12-29T18:25:31.042Z,98810.63
2022-12-29T18:27:58.702Z,98818.44
2022-12-29T18:30:26.349Z,98806.13
2022-12-29T18:32:54.560Z,98801.97
2022-12-29T18:35:34.512Z,98808.31
2022-12-29T18:38:02.233Z,98805.84
2022-12-29T18:40:30.410Z,98813.28
2022-12-29T18:42:58.049Z,98800.91
2022-12-29T18:45:26.145Z,98809.78
2022-12-29T18:47:54.043Z,98793.81
2022-12-29T18:50:21.771Z,98813.94
2022-12-29T18:52:49.591Z,98809.00
2022-12-29T18:55:23.802Z,98813.13
2022-12-29T18:57:52.601Z,98813.41
2022-12-29T19:00:22.715Z,98808.94
2022-12-29T19:02:52.164Z,98812.38
2022-12-29T19:05:32.618Z,98815.91
2022-12-29T19:08:00.303Z,98814.34
2022-12-29T19:10:28.134Z,98828.38
2022-12-29T19:12:55.833Z,98825.63
2022-12-29T19:15:32.881Z,98823.81
2022-12-29T19:20:52.547Z,98811.38
2022-12-29T19:23:23.666Z,98813.03
2022-12-29T19:25:52.417Z,98820.13
2022-12-29T19:28:26.182Z,98822.09
2022-12-29T19:30:57.478Z,98799.09
2022-12-29T19:33:25.277Z,98830.63
2022-12-29T19:35:53.997Z,98823.69
2022-12-29T19:38:21.710Z,98821.75
2022-12-29T19:40:51.511Z,98817.59
2022-12-29T19:43:19.715Z,98811.19
2022-12-29T19:45:47.426Z,98815.28
2022-12-29T19:48:17.482Z,98820.16
2022-12-29T19:50:45.563Z,98822.22
2022-12-29T19:53:13.580Z,98814.25
2022-12-29T19:55:48.368Z,98812.94
2022-12-29T19:58:16.312Z,98812.94
2022-12-29T20:00:44.680Z,98818.72
2022-12-29T20:03:12.868Z,98819.88
2022-12-29T20:05:41.323Z,98832.84
2022-12-29T20:08:09.014Z,98823.22
2022-12-29T20:10:36.754Z,98835.34
2022-12-29T20:13:06.089Z,98838.72
2022-12-29T20:15:33.884Z,98837.94
2022-12-29T20:18:13.153Z,98835.97
2022-12-29T20:20:41.704Z,98843.06
2022-12-29T20:23:09.623Z,98837.03
2022-12-29T20:25:46.062Z,98839.50
2022-12-29T20:28:14.503Z,98844.75
2022-12-29T20:30:42.215Z,98837.66
2022-12-29T20:33:10.190Z,98834.59
2022-12-29T20:35:38.280Z,98844.56
2022-12-29T20:38:06.295Z,98837.13
2022-12-29T20:40:34.004Z,98831.31
2022-12-29T20:43:01.678Z,98831.31
2022-12-29T20:45:29.351Z,98822.50
2022-12-29T20:47:57.061Z,98824.19
2022-12-29T20:50:24.787Z,98820.31
2022-12-29T20:52:53.471Z,98819.22
2022-12-29T20:55:21.153Z,98811.19
2022-12-29T21:00:36.705Z,98797.69
2022-12-29T21:03:05.010Z,98804.38
2022-12-29T21:05:32.731Z,98796.72
2022-12-29T21:08:00.611Z,98794.81
2022-12-29T21:10:28.323Z,98787.91
2022-12-29T21:12:56.020Z,98773.66
2022-12-29T21:15:23.764Z,98782.38
2022-12-29T21:17:51.467Z,98781.84
2022-12-29T21:20:29.793Z,98779.09
2022-12-29T21:22:58.019Z,98780.19
2022-12-29T21:25:25.721Z,98775.97
2022-12-29T21:27:53.505Z,98769.94
2022-12-29T21:30:21.205Z,98775.97
2022-12-29T21:32:48.897Z,98777.09
2022-12-29T21:35:16.580Z,98717.28
2022-12-29T21:37:44.226Z,98772.47
2022-12-29T21:40:12.239Z,98771.94
2022-12-29T21:42:39.900Z,98772.47
2022-12-29T21:45:26.643Z,98770.84
2022-12-29T21:48:24.131Z,98765.38
2022-12-29T21:51:30.593Z,98733.84
2022-12-29T21:54:21.516Z,98766.78
2022-12-29T21:56:50.076Z,98755.81
2022-12-29T21:59:35.769Z,98759.13
2022-12-29T22:02:35.316Z,98764.34
2022-12-29T22:05:20.539Z,98765.16
2022-12-29T22:08:05.841Z,98757.56
2022-12-29T22:10:51.027Z,98741.34
2022-12-29T22:13:18.732Z,98741.88
2022-12-29T22:15:46.444Z,98749.56
2022-12-29T22:18:15.296Z,98757.53
2022-12-29T22:20:42.933Z,98753.63
2022-12-29T22:23:10.637Z,98750.59
2022-12-29T22:25:41.058Z,98752.81
2022-12-29T22:28:08.742Z,98757.50
2022-12-29T22:30:37.041Z,98758.84
2022-12-29T22:33:04.753Z,98754.97
2022-12-29T22:35:32.505Z,98747.00
2022-12-29T22:38:00.239Z,98716.59
2022-12-29T22:40:27.875Z,98742.06
2022-12-29T22:42:55.611Z,98742.16
2022-12-29T22:45:23.312Z,98745.19
2022-12-29T22:47:51.005Z,98745.25
2022-12-29T22:50:18.715Z,98732.34
2022-12-29T22:52:46.402Z,98740.34
2022-12-29T22:55:14.275Z,98744.97
2022-12-29T22:57:41.932Z,98744.66
2022-12-29T23:00:10.114Z,98741.63
2022-12-29T23:02:37.873Z,98741.88
2022-12-29T23:05:06.538Z,98736.66
2022-12-29T23:07:37.511Z,98730.97
2022-12-29T23:10:06.138Z,98745.44
2022-12-29T23:12:33.826Z,98737.47
2022-12-29T23:15:01.600Z,98740.22
2022-12-29T23:17:29.261Z,98735.84
2022-12-29T23:19:56.944Z,98729.75
2022-12-29T23:22:25.113Z,98714.91
2022-12-29T23:24:52.873Z,98734.13
2022-12-29T23:27:20.653Z,98721.47
2022-12-29T23:29:48.387Z,98713.06
2022-12-29T23:32:16.041Z,98723.97
2022-12-29T23:34:43.694Z,98716.03
2022-12-29T23:37:11.355Z,98706.69
2022-12-29T23:39:39.060Z,98706.97
2022-12-29T23:42:06.939Z,98716.31
2022-12-29T23:44:34.857Z,98713.25
2022-12-29T23:47:04.592Z,98695.13
2022-12-29T23:49:32.301Z,98712.97
2022-12-29T23:51:59.935Z,98701.72
2022-12-29T23:54:27.627Z,98704.44
2022-12-29T23:56:56.649Z,98706.41
2022-12-29T23:59:24.420Z,98693.78
